Freedom of the Seas — C6UZ7 — position and weather

sailwx.info

Track history (hours):
 
Tides and Currents Weather Stations Pressure Air Temp Water Temp Dewpoint Dewpoint Depression Visibility Wind Speed Wind Dir Waves Ship Positions

Freedom of the Seas

Last reported at 2019-Sep-21 09:27 UTC. Time now 2019-Sep-21 11:40 UTC.
Position N 14°43' W 061°32'.

Length 339 m; draft 9 m.

Type: Ship. MMSI: 309906000.

Date/timePositionNaut miles runAvg speedWind from/ knotsBaromVisibWave heightAir tempDewpointWater temp
2019-Sep-21 09:27N 14°43' W 061°32'1118.4
2019-Sep-21 08:52N 14°35' W 061°25'1618.7
2019-Sep-21 08:00N 14°23' W 061°14'917.8
2019-Sep-21 07:30N 14°18' W 061°06'917.4
2019-Sep-21 07:00N 14°14' W 060°58'917.6
2019-Sep-21 06:30N 14°10' W 060°50'41 1.5
2019-Sep-20 03:00N 13°30' W 060°42'50 3.0 100 / 41012.010.8 29.0
2019-Sep-19 10:18N 14°12' W 061°11'412.8
2019-Sep-19 10:00N 14°15' W 061°13'613.0
2019-Sep-19 09:30N 14°20' W 061°18'813.7
2019-Sep-19 08:54N 14°27' W 061°22'614.3
2019-Sep-19 08:28N 14°33' W 061°24'166 5.6
2019-Sep-18 02:39N 16°57' W 062°50'7 7.7
2019-Sep-18 01:46N 17°04' W 062°52'17 1.1
2019-Sep-17 10:23N 17°21' W 062°56'1410.3
2019-Sep-17 08:59N 17°32' W 063°05'610.9
2019-Sep-17 08:23N 17°38' W 063°09'410.9
2019-Sep-17 07:59N 17°41' W 063°11'511.0
2019-Sep-17 07:30N 17°44' W 063°16'611.0
2019-Sep-17 06:56N 17°46' W 063°22'711.1
2019-Sep-17 06:20N 17°49' W 063°29'410.6
2019-Sep-17 05:59N 17°50' W 063°32'7511.5
2019-Sep-16 23:29N 18°11' W 064°48'511.3
2019-Sep-16 23:00N 18°13' W 064°53'611.5
2019-Sep-16 22:30N 18°16' W 064°58'4 7.8
2019-Sep-16 22:00N 18°20' W 064°57'0 0.6
2019-Sep-16 21:27N 18°20' W 064°57'0 0.0
2019-Sep-16 20:39N 18°20' W 064°57'0 0.0
2019-Sep-16 20:21N 18°20' W 064°57'0 0.0
2019-Sep-16 19:57N 18°20' W 064°57'0 0.0
2019-Sep-16 19:21N 18°20' W 064°57'0 0.0
2019-Sep-16 18:51N 18°20' W 064°57'0 0.0
2019-Sep-16 18:27N 18°20' W 064°57'0 0.0
2019-Sep-16 17:57N 18°20' W 064°57'0 0.0
2019-Sep-16 17:09N 18°20' W 064°57'0 0.0
2019-Sep-16 16:51N 18°20' W 064°57'0 0.0
2019-Sep-16 16:09N 18°20' W 064°57'0 0.0
2019-Sep-16 15:03N 18°20' W 064°57'0 0.0
2019-Sep-16 14:45N 18°20' W 064°57'0 0.0
2019-Sep-16 13:21N 18°20' W 064°57'0 0.0
2019-Sep-16 11:58N 18°20' W 064°57'2 4.5
2019-Sep-16 11:30N 18°19' W 064°59'5 9.9
2019-Sep-16 11:00N 18°18' W 065°04'5 9.2
2019-Sep-16 10:30N 18°20' W 065°08'3 5.4
2019-Sep-16 10:00N 18°23' W 065°09'3 5.4
2019-Sep-16 09:30N 18°25' W 065°11'3 5.6
2019-Sep-16 09:00N 18°27' W 065°13'3 6.9
2019-Sep-16 08:30N 18°30' W 065°15'3 7.0
2019-Sep-16 08:00N 18°33' W 065°17'4 7.2
2019-Sep-16 07:30N 18°36' W 065°19'4 7.1
2019-Sep-16 07:00N 18°37' W 065°23'4 7.6
2019-Sep-16 06:30N 18°38' W 065°27'4 7.5
2019-Sep-16 06:00N 18°39' W 065°30'4 7.5
2019-Sep-16 05:30N 18°40' W 065°34'4 7.3
2019-Sep-16 05:00N 18°40' W 065°38'4 7.3
2019-Sep-16 04:30N 18°41' W 065°42'23 7.5
2019-Sep-16 01:25N 18°36' W 066°05'512.8
2019-Sep-16 01:00N 18°31' W 066°07'4 7.1
2019-Sep-16 00:30N 18°28' W 066°06'0 0.6
2019-Sep-15 23:58N 18°28' W 066°06'0 0.0
2019-Sep-15 23:28N 18°28' W 066°06'0 0.0
2019-Sep-15 22:59N 18°28' W 066°06'0 0.0
2019-Sep-15 22:28N 18°28' W 066°06'0 0.0
2019-Sep-15 21:55N 18°28' W 066°06'0 0.0
2019-Sep-15 21:28N 18°28' W 066°06'0 0.0
2019-Sep-15 20:58N 18°28' W 066°06'0 0.0
2019-Sep-15 20:25N 18°28' W 066°06'0 0.0
2019-Sep-15 19:55N 18°28' W 066°06'0 0.0
2019-Sep-15 19:28N 18°28' W 066°06'0 0.0
2019-Sep-15 18:52N 18°28' W 066°06'0 0.0
2019-Sep-15 18:25N 18°28' W 066°06'0 0.0
2019-Sep-15 17:55N 18°28' W 066°06'0 0.0
2019-Sep-15 17:22N 18°28' W 066°06'0 0.0
2019-Sep-15 16:55N 18°28' W 066°06'0 0.0
2019-Sep-15 16:28N 18°28' W 066°06'0 0.0
2019-Sep-15 15:31N 18°28' W 066°06'0 0.0
2019-Sep-15 15:25N 18°28' W 066°06'0 0.0
2019-Sep-15 14:58N 18°28' W 066°06'0 0.0
2019-Sep-15 14:28N 18°28' W 066°06'0 0.0
2019-Sep-15 13:55N 18°28' W 066°06'0 0.0
2019-Sep-15 13:25N 18°28' W 066°06'0 0.0
2019-Sep-15 12:55N 18°28' W 066°06'0 0.0
2019-Sep-15 12:25N 18°28' W 066°06'0 0.0
2019-Sep-15 11:58N 18°28' W 066°06'0 0.0
2019-Sep-15 11:22N 18°28' W 066°06'0 0.0
2019-Sep-15 10:55N 18°28' W 066°06'0 0.0
2019-Sep-15 10:19N 18°28' W 066°06'0 0.0
2019-Sep-15 09:58N 18°28' W 066°06'0 0.0
2019-Sep-15 09:30N 18°28' W 066°06'2 3.5
2019-Sep-15 08:59N 18°29' W 066°08'511.0
2019-Sep-15 08:30N 18°33' W 066°05'811.9
2019-Sep-15 07:50N 18°33' W 065°56'1212.1
2019-Sep-15 06:53N 18°32' W 065°44'513.1
2019-Sep-15 06:30N 18°32' W 065°39'1014.0
2019-Sep-15 05:48N 18°29' W 065°29'413.9
2019-Sep-15 05:29N 18°28' W 065°25'713.8
2019-Sep-15 05:01N 18°27' W 065°18'713.5
2019-Sep-15 04:30N 18°22' W 065°12'815.3
2019-Sep-15 04:00N 18°16' W 065°07'917.2
2019-Sep-15 03:30N 18°13' W 064°59'917.5
2019-Sep-15 03:01N 18°12' W 064°50'9117.4
2019-Sep-14 21:47N 18°01' W 063°15'1016.7
2019-Sep-14 21:10N 18°00' W 063°04'1 6.6
2019-Sep-14 20:58N 18°00' W 063°03'0 0.3
2019-Sep-14 20:01N 18°01' W 063°03'0 0.0
2019-Sep-14 19:00N 18°01' W 063°03'0 0.0
2019-Sep-14 16:42N 18°01' W 063°03'0 0.0
2019-Sep-14 15:00N 18°01' W 063°03'0 0.1
2019-Sep-14 11:40N 18°00' W 063°03'5 9.9
2019-Sep-14 11:07N 17°59' W 063°08'1211.5
2019-Sep-14 10:05N 17°54' W 063°20'313.1
2019-Sep-14 09:51N 17°52' W 063°22'  
Track history (hours):
 
Tides and Currents Weather Stations Pressure Air Temp Water Temp Dewpoint Dewpoint Depression Visibility Wind Speed Wind Dir Waves Ship Positions

Freedom of the Seas

Last reported at 2019-Sep-21 09:27 UTC. Time now 2019-Sep-21 11:40 UTC.
Position N 14°43' W 061°32'.

Length 339 m; draft 9 m.

Type: Ship. MMSI: 309906000.

Date/timePositionNaut miles runAvg speedWind from/ knotsBaromVisibWave heightAir tempDewpointWater temp
2019-Sep-21 09:27N 14°43' W 061°32'1118.4
2019-Sep-21 08:52N 14°35' W 061°25'1618.7
2019-Sep-21 08:00N 14°23' W 061°14'917.8
2019-Sep-21 07:30N 14°18' W 061°06'917.4
2019-Sep-21 07:00N 14°14' W 060°58'917.6
2019-Sep-21 06:30N 14°10' W 060°50'41 1.5
2019-Sep-20 03:00N 13°30' W 060°42'50 3.0 100 / 41012.010.8 29.0
2019-Sep-19 10:18N 14°12' W 061°11'412.8
2019-Sep-19 10:00N 14°15' W 061°13'613.0
2019-Sep-19 09:30N 14°20' W 061°18'813.7
2019-Sep-19 08:54N 14°27' W 061°22'614.3
2019-Sep-19 08:28N 14°33' W 061°24'166 5.6
2019-Sep-18 02:39N 16°57' W 062°50'7 7.7
2019-Sep-18 01:46N 17°04' W 062°52'17 1.1
2019-Sep-17 10:23N 17°21' W 062°56'1410.3
2019-Sep-17 08:59N 17°32' W 063°05'610.9
2019-Sep-17 08:23N 17°38' W 063°09'410.9
2019-Sep-17 07:59N 17°41' W 063°11'511.0
2019-Sep-17 07:30N 17°44' W 063°16'611.0
2019-Sep-17 06:56N 17°46' W 063°22'711.1
2019-Sep-17 06:20N 17°49' W 063°29'410.6
2019-Sep-17 05:59N 17°50' W 063°32'7511.5
2019-Sep-16 23:29N 18°11' W 064°48'511.3
2019-Sep-16 23:00N 18°13' W 064°53'611.5
2019-Sep-16 22:30N 18°16' W 064°58'4 7.8
2019-Sep-16 22:00N 18°20' W 064°57'0 0.6
2019-Sep-16 21:27N 18°20' W 064°57'0 0.0
2019-Sep-16 20:39N 18°20' W 064°57'0 0.0
2019-Sep-16 20:21N 18°20' W 064°57'0 0.0
2019-Sep-16 19:57N 18°20' W 064°57'0 0.0
2019-Sep-16 19:21N 18°20' W 064°57'0 0.0
2019-Sep-16 18:51N 18°20' W 064°57'0 0.0
2019-Sep-16 18:27N 18°20' W 064°57'0 0.0
2019-Sep-16 17:57N 18°20' W 064°57'0 0.0
2019-Sep-16 17:09N 18°20' W 064°57'0 0.0
2019-Sep-16 16:51N 18°20' W 064°57'0 0.0
2019-Sep-16 16:09N 18°20' W 064°57'0 0.0
2019-Sep-16 15:03N 18°20' W 064°57'0 0.0
2019-Sep-16 14:45N 18°20' W 064°57'0 0.0
2019-Sep-16 13:21N 18°20' W 064°57'0 0.0
2019-Sep-16 11:58N 18°20' W 064°57'2 4.5
2019-Sep-16 11:30N 18°19' W 064°59'5 9.9
2019-Sep-16 11:00N 18°18' W 065°04'5 9.2
2019-Sep-16 10:30N 18°20' W 065°08'3 5.4
2019-Sep-16 10:00N 18°23' W 065°09'3 5.4
2019-Sep-16 09:30N 18°25' W 065°11'3 5.6
2019-Sep-16 09:00N 18°27' W 065°13'3 6.9
2019-Sep-16 08:30N 18°30' W 065°15'3 7.0
2019-Sep-16 08:00N 18°33' W 065°17'4 7.2
2019-Sep-16 07:30N 18°36' W 065°19'4 7.1
2019-Sep-16 07:00N 18°37' W 065°23'4 7.6
2019-Sep-16 06:30N 18°38' W 065°27'4 7.5
2019-Sep-16 06:00N 18°39' W 065°30'4 7.5
2019-Sep-16 05:30N 18°40' W 065°34'4 7.3
2019-Sep-16 05:00N 18°40' W 065°38'4 7.3
2019-Sep-16 04:30N 18°41' W 065°42'23 7.5
2019-Sep-16 01:25N 18°36' W 066°05'512.8
2019-Sep-16 01:00N 18°31' W 066°07'4 7.1
2019-Sep-16 00:30N 18°28' W 066°06'0 0.6
2019-Sep-15 23:58N 18°28' W 066°06'0 0.0
2019-Sep-15 23:28N 18°28' W 066°06'0 0.0
2019-Sep-15 22:59N 18°28' W 066°06'0 0.0
2019-Sep-15 22:28N 18°28' W 066°06'0 0.0
2019-Sep-15 21:55N 18°28' W 066°06'0 0.0
2019-Sep-15 21:28N 18°28' W 066°06'0 0.0
2019-Sep-15 20:58N 18°28' W 066°06'0 0.0
2019-Sep-15 20:25N 18°28' W 066°06'0 0.0
2019-Sep-15 19:55N 18°28' W 066°06'0 0.0
2019-Sep-15 19:28N 18°28' W 066°06'0 0.0
2019-Sep-15 18:52N 18°28' W 066°06'0 0.0
2019-Sep-15 18:25N 18°28' W 066°06'0 0.0
2019-Sep-15 17:55N 18°28' W 066°06'0 0.0
2019-Sep-15 17:22N 18°28' W 066°06'0 0.0
2019-Sep-15 16:55N 18°28' W 066°06'0 0.0
2019-Sep-15 16:28N 18°28' W 066°06'0 0.0
2019-Sep-15 15:31N 18°28' W 066°06'0 0.0
2019-Sep-15 15:25N 18°28' W 066°06'0 0.0
2019-Sep-15 14:58N 18°28' W 066°06'0 0.0
2019-Sep-15 14:28N 18°28' W 066°06'0 0.0
2019-Sep-15 13:55N 18°28' W 066°06'0 0.0
2019-Sep-15 13:25N 18°28' W 066°06'0 0.0
2019-Sep-15 12:55N 18°28' W 066°06'0 0.0
2019-Sep-15 12:25N 18°28' W 066°06'0 0.0
2019-Sep-15 11:58N 18°28' W 066°06'0 0.0
2019-Sep-15 11:22N 18°28' W 066°06'0 0.0
2019-Sep-15 10:55N 18°28' W 066°06'0 0.0
2019-Sep-15 10:19N 18°28' W 066°06'0 0.0
2019-Sep-15 09:58N 18°28' W 066°06'0 0.0
2019-Sep-15 09:30N 18°28' W 066°06'2 3.5
2019-Sep-15 08:59N 18°29' W 066°08'511.0
2019-Sep-15 08:30N 18°33' W 066°05'811.9
2019-Sep-15 07:50N 18°33' W 065°56'1212.1
2019-Sep-15 06:53N 18°32' W 065°44'513.1
2019-Sep-15 06:30N 18°32' W 065°39'1014.0
2019-Sep-15 05:48N 18°29' W 065°29'413.9
2019-Sep-15 05:29N 18°28' W 065°25'713.8
2019-Sep-15 05:01N 18°27' W 065°18'713.5
2019-Sep-15 04:30N 18°22' W 065°12'815.3
2019-Sep-15 04:00N 18°16' W 065°07'917.2
2019-Sep-15 03:30N 18°13' W 064°59'917.5
2019-Sep-15 03:01N 18°12' W 064°50'9117.4
2019-Sep-14 21:47N 18°01' W 063°15'1016.7
2019-Sep-14 21:10N 18°00' W 063°04'1 6.6
2019-Sep-14 20:58N 18°00' W 063°03'0 0.3
2019-Sep-14 20:01N 18°01' W 063°03'0 0.0
2019-Sep-14 19:00N 18°01' W 063°03'0 0.0
2019-Sep-14 16:42N 18°01' W 063°03'0 0.0
2019-Sep-14 15:00N 18°01' W 063°03'0 0.1
2019-Sep-14 11:40N 18°00' W 063°03'5 9.9
2019-Sep-14 11:07N 17°59' W 063°08'1211.5
2019-Sep-14 10:05N 17°54' W 063°20'313.1
2019-Sep-14 09:51N 17°52' W 063°22'  

Dump ship's entire track history